This is the latest recevied weather packets stored in our database for station/object KI4HRG. If no packets are shown the sender has not sent any weather packets the latest 10 day(s).
| Time | Temp. | Humidity | Pressure | Rain* | Wind** | Luminosity | Snow |
|---|---|---|---|---|---|---|---|
| 1777982711 | 15.56° C | 86% | 1013.9 hPa | 0 mm | - | 60 W/m² | - |
| 1777982406 | 14.44° C | 92% | 1013.9 hPa | 0 mm | - | 49 W/m² | - |
| 1777982101 | 13.33° C | 95% | 1013.7 hPa | 0 mm | - | 44 W/m² | - |
| 1777981799 | 12.78° C | 98% | 1013.7 hPa | 0 mm | - | 39 W/m² | - |
| 1777981495 | 11.67° C | 99% | 1013.7 hPa | 0 mm | - | 36 W/m² | - |
| 1777981192 | 11.11° C | 99% | 1013.9 hPa | 0 mm | - | 26 W/m² | - |
| 1777980888 | 11.11° C | 99% | 1013.7 hPa | 0 mm | - | 23 W/m² | - |
| 1777980584 | 11.11° C | 99% | 1013.7 hPa | 0 mm | - | 18 W/m² | - |
| 1777980282 | 10.56° C | 99% | 1013.5 hPa | 0 mm | - | 14 W/m² | - |
| 1777979978 | 10.56° C | 99% | 1013.4 hPa | 0 mm | - | 11 W/m² | - |
| 1777979672 | 10.56° C | 99% | 1013.4 hPa | 0 mm | - | 8 W/m² | - |
| 1777979369 | 10.56° C | 99% | 1013.5 hPa | 0 mm | - | 6 W/m² | - |
| 1777979066 | 10.56° C | 99% | 1013.4 hPa | 0 mm | - | 4 W/m² | - |
| 1777978763 | 10.56° C | 99% | 1013.4 hPa | 0 mm | - | 1 W/m² | - |
| 1777978460 | 10.56° C | 99% | 1013.5 hPa | 0 mm | - | 0 W/m² | - |
| 1777978155 | 10.56° C | 99% | 1013.4 hPa | 0 mm | - | 0 W/m² | - |
| 1777977853 | 10.56° C | 99% | 1013.5 hPa | 0 mm | - | 0 W/m² | - |
| 1777977549 | 10.56° C | 99% | 1013.3 hPa | 0 mm | - | 0 W/m² | - |
| 1777977247 | 10.56° C | 98% | 1013.2 hPa | 0 mm | - | 0 W/m² | - |
| 1777976944 | 11.11° C | 98% | 1013.2 hPa | 0 mm | - | 0 W/m² | - |
| 1777976641 | 11.11° C | 98% | 1013.1 hPa | 0 mm | - | 0 W/m² | - |
| 1777976337 | 11.11° C | 98% | 1013.2 hPa | 0 mm | - | 0 W/m² | - |
| 1777976032 | 11.11° C | 98% | 1013.1 hPa | 0 mm | - | 0 W/m² | - |
| 1777975728 | 11.11° C | 98% | 1013.3 hPa | 0 mm | - | 0 W/m² | - |
| 1777975424 | 11.11° C | 98% | 1013.2 hPa | 0 mm | - | 0 W/m² | - |
* Rain latest hour (hover to see other rain measurements)
** Current wind speed in m/s (hover to see current wind gust speed)